sensor_id;sensor_type;location;lat;lon;timestamp;P1;durP1;ratioP1;P2;durP2;ratioP2
28431;SDS011;15664;51.302;7.744;2022-08-01T00:00:27;30.73;;;13.13;;
28431;SDS011;15664;51.302;7.744;2022-08-01T00:02:52;33.77;;;14.13;;
28431;SDS011;15664;51.302;7.744;2022-08-01T00:05:17;29.97;;;12.73;;
28431;SDS011;15664;51.302;7.744;2022-08-01T00:07:42;31.53;;;13.77;;
28431;SDS011;15664;51.302;7.744;2022-08-01T00:10:09;30.70;;;13.80;;
28431;SDS011;15664;51.302;7.744;2022-08-01T00:12:34;31.23;;;12.93;;
28431;SDS011;15664;51.302;7.744;2022-08-01T00:15:00;31.08;;;13.90;;
28431;SDS011;15664;51.302;7.744;2022-08-01T00:17:25;33.53;;;13.40;;
28431;SDS011;15664;51.302;7.744;2022-08-01T00:19:51;29.57;;;12.57;;
28431;SDS011;15664;51.302;7.744;2022-08-01T00:22:16;30.03;;;12.57;;
28431;SDS011;15664;51.302;7.744;2022-08-01T00:24:41;30.20;;;12.63;;
28431;SDS011;15664;51.302;7.744;2022-08-01T00:27:06;29.83;;;12.03;;
28431;SDS011;15664;51.302;7.744;2022-08-01T00:29:31;29.97;;;12.97;;
28431;SDS011;15664;51.302;7.744;2022-08-01T00:31:57;28.37;;;12.33;;
28431;SDS011;15664;51.302;7.744;2022-08-01T00:34:22;31.33;;;13.30;;
28431;SDS011;15664;51.302;7.744;2022-08-01T00:36:47;29.57;;;12.30;;
28431;SDS011;15664;51.302;7.744;2022-08-01T00:39:12;29.13;;;12.90;;
28431;SDS011;15664;51.302;7.744;2022-08-01T00:41:38;28.73;;;12.20;;
28431;SDS011;15664;51.302;7.744;2022-08-01T00:44:06;28.08;;;12.10;;
28431;SDS011;15664;51.302;7.744;2022-08-01T00:46:32;27.10;;;11.97;;
28431;SDS011;15664;51.302;7.744;2022-08-01T00:48:57;30.77;;;11.90;;
28431;SDS011;15664;51.302;7.744;2022-08-01T00:51:22;26.10;;;11.47;;
28431;SDS011;15664;51.302;7.744;2022-08-01T00:53:48;30.70;;;11.97;;
28431;SDS011;15664;51.302;7.744;2022-08-01T00:56:14;27.02;;;10.43;;
28431;SDS011;15664;51.302;7.744;2022-08-01T00:58:39;25.27;;;9.97;;
28431;SDS011;15664;51.302;7.744;2022-08-01T01:01:04;27.30;;;11.20;;
28431;SDS011;15664;51.302;7.744;2022-08-01T01:03:30;26.80;;;10.87;;
28431;SDS011;15664;51.302;7.744;2022-08-01T01:08:24;25.27;;;10.75;;
28431;SDS011;15664;51.302;7.744;2022-08-01T01:10:54;24.42;;;9.98;;
28431;SDS011;15664;51.302;7.744;2022-08-01T01:13:23;23.83;;;10.10;;
28431;SDS011;15664;51.302;7.744;2022-08-01T01:15:53;25.42;;;9.75;;
28431;SDS011;15664;51.302;7.744;2022-08-01T01:18:21;24.17;;;10.35;;
28431;SDS011;15664;51.302;7.744;2022-08-01T01:20:51;23.95;;;10.35;;
28431;SDS011;15664;51.302;7.744;2022-08-01T01:26:15;15.70;;;7.30;;
28431;SDS011;15664;51.302;7.744;2022-08-01T01:31:26;15.57;;;6.25;;
28431;SDS011;15664;51.302;7.744;2022-08-01T01:33:52;19.05;;;7.65;;
28431;SDS011;15664;51.302;7.744;2022-08-01T01:36:19;19.00;;;8.18;;
28431;SDS011;15664;51.302;7.744;2022-08-01T01:38:45;21.07;;;8.33;;
28431;SDS011;15664;51.302;7.744;2022-08-01T01:41:11;28.15;;;10.30;;
28431;SDS011;15664;51.302;7.744;2022-08-01T01:43:36;30.98;;;11.15;;
28431;SDS011;15664;51.302;7.744;2022-08-01T01:46:02;35.17;;;11.63;;
28431;SDS011;15664;51.302;7.744;2022-08-01T01:48:28;43.90;;;13.30;;
28431;SDS011;15664;51.302;7.744;2022-08-01T01:50:53;41.67;;;13.83;;
28431;SDS011;15664;51.302;7.744;2022-08-01T01:53:20;43.17;;;14.05;;
28431;SDS011;15664;51.302;7.744;2022-08-01T01:55:47;50.27;;;16.67;;
28431;SDS011;15664;51.302;7.744;2022-08-01T01:58:13;46.80;;;15.52;;
28431;SDS011;15664;51.302;7.744;2022-08-01T02:00:39;54.15;;;17.35;;
28431;SDS011;15664;51.302;7.744;2022-08-01T02:03:05;50.05;;;15.82;;
28431;SDS011;15664;51.302;7.744;2022-08-01T02:05:30;56.22;;;17.58;;
28431;SDS011;15664;51.302;7.744;2022-08-01T02:07:59;51.73;;;16.50;;
28431;SDS011;15664;51.302;7.744;2022-08-01T02:10:24;58.55;;;18.05;;
28431;SDS011;15664;51.302;7.744;2022-08-01T02:12:50;53.53;;;18.48;;
28431;SDS011;15664;51.302;7.744;2022-08-01T02:15:15;61.23;;;19.50;;
28431;SDS011;15664;51.302;7.744;2022-08-01T02:17:44;55.73;;;18.97;;
28431;SDS011;15664;51.302;7.744;2022-08-01T02:20:10;63.35;;;19.88;;
28431;SDS011;15664;51.302;7.744;2022-08-01T02:22:44;59.55;;;19.83;;
28431;SDS011;15664;51.302;7.744;2022-08-01T02:25:15;60.43;;;19.60;;
28431;SDS011;15664;51.302;7.744;2022-08-01T02:30:08;60.67;;;20.13;;
28431;SDS011;15664;51.302;7.744;2022-08-01T02:32:38;60.72;;;19.67;;
28431;SDS011;15664;51.302;7.744;2022-08-01T02:35:05;59.45;;;19.15;;
28431;SDS011;15664;51.302;7.744;2022-08-01T02:37:33;62.53;;;19.87;;
28431;SDS011;15664;51.302;7.744;2022-08-01T02:39:59;56.63;;;17.90;;
28431;SDS011;15664;51.302;7.744;2022-08-01T02:42:25;62.72;;;19.73;;
28431;SDS011;15664;51.302;7.744;2022-08-01T02:44:51;57.07;;;20.40;;
28431;SDS011;15664;51.302;7.744;2022-08-01T02:47:17;49.70;;;18.02;;
28431;SDS011;15664;51.302;7.744;2022-08-01T02:49:45;50.20;;;17.52;;
28431;SDS011;15664;51.302;7.744;2022-08-01T02:52:13;51.65;;;16.80;;
28431;SDS011;15664;51.302;7.744;2022-08-01T02:54:39;50.33;;;18.40;;
28431;SDS011;15664;51.302;7.744;2022-08-01T02:57:06;50.08;;;16.85;;
28431;SDS011;15664;51.302;7.744;2022-08-01T02:59:31;46.78;;;17.33;;
28431;SDS011;15664;51.302;7.744;2022-08-01T03:01:57;43.47;;;15.77;;
28431;SDS011;15664;51.302;7.744;2022-08-01T03:04:23;50.00;;;16.90;;
28431;SDS011;15664;51.302;7.744;2022-08-01T03:06:49;53.17;;;17.33;;
28431;SDS011;15664;51.302;7.744;2022-08-01T03:09:15;51.38;;;17.02;;
28431;SDS011;15664;51.302;7.744;2022-08-01T03:11:41;55.23;;;18.13;;
28431;SDS011;15664;51.302;7.744;2022-08-01T03:14:07;59.08;;;18.73;;
28431;SDS011;15664;51.302;7.744;2022-08-01T03:16:34;63.50;;;20.05;;
28431;SDS011;15664;51.302;7.744;2022-08-01T03:19:01;62.50;;;19.63;;
28431;SDS011;15664;51.302;7.744;2022-08-01T03:21:28;62.72;;;20.98;;
28431;SDS011;15664;51.302;7.744;2022-08-01T03:23:55;72.30;;;21.13;;
28431;SDS011;15664;51.302;7.744;2022-08-01T03:26:23;66.60;;;19.50;;
28431;SDS011;15664;51.302;7.744;2022-08-01T03:28:49;71.68;;;21.38;;
28431;SDS011;15664;51.302;7.744;2022-08-01T03:31:16;78.13;;;21.63;;
28431;SDS011;15664;51.302;7.744;2022-08-01T03:33:41;69.07;;;20.00;;
28431;SDS011;15664;51.302;7.744;2022-08-01T03:36:07;73.03;;;21.67;;
28431;SDS011;15664;51.302;7.744;2022-08-01T03:38:34;73.18;;;22.77;;
28431;SDS011;15664;51.302;7.744;2022-08-01T03:41:11;72.53;;;21.48;;
28431;SDS011;15664;51.302;7.744;2022-08-01T03:43:45;73.75;;;20.85;;
28431;SDS011;15664;51.302;7.744;2022-08-01T03:46:13;74.93;;;20.60;;
28431;SDS011;15664;51.302;7.744;2022-08-01T03:48:42;70.88;;;21.42;;
28431;SDS011;15664;51.302;7.744;2022-08-01T03:51:08;73.63;;;21.88;;
28431;SDS011;15664;51.302;7.744;2022-08-01T03:53:34;73.72;;;20.58;;
28431;SDS011;15664;51.302;7.744;2022-08-01T03:56:01;69.90;;;21.40;;
28431;SDS011;15664;51.302;7.744;2022-08-01T03:58:27;64.53;;;19.47;;
28431;SDS011;15664;51.302;7.744;2022-08-01T04:00:52;64.63;;;19.20;;
28431;SDS011;15664;51.302;7.744;2022-08-01T04:03:18;65.75;;;19.75;;
28431;SDS011;15664;51.302;7.744;2022-08-01T04:05:44;63.47;;;19.80;;
28431;SDS011;15664;51.302;7.744;2022-08-01T04:08:09;68.10;;;19.83;;
28431;SDS011;15664;51.302;7.744;2022-08-01T04:10:35;60.25;;;18.83;;
28431;SDS011;15664;51.302;7.744;2022-08-01T04:13:01;65.60;;;19.07;;
28431;SDS011;15664;51.302;7.744;2022-08-01T04:15:26;65.90;;;18.80;;
28431;SDS011;15664;51.302;7.744;2022-08-01T04:17:51;70.03;;;19.67;;
28431;SDS011;15664;51.302;7.744;2022-08-01T04:20:19;63.10;;;18.95;;
28431;SDS011;15664;51.302;7.744;2022-08-01T04:22:44;70.63;;;19.37;;
28431;SDS011;15664;51.302;7.744;2022-08-01T04:25:14;72.23;;;21.10;;
28431;SDS011;15664;51.302;7.744;2022-08-01T04:27:42;70.10;;;19.75;;
28431;SDS011;15664;51.302;7.744;2022-08-01T04:30:08;66.47;;;20.45;;
28431;SDS011;15664;51.302;7.744;2022-08-01T04:32:35;63.20;;;19.37;;
28431;SDS011;15664;51.302;7.744;2022-08-01T04:35:04;56.78;;;18.50;;
28431;SDS011;15664;51.302;7.744;2022-08-01T04:37:30;59.95;;;18.35;;
28431;SDS011;15664;51.302;7.744;2022-08-01T04:39:55;64.53;;;18.73;;
28431;SDS011;15664;51.302;7.744;2022-08-01T04:42:21;57.17;;;17.50;;
28431;SDS011;15664;51.302;7.744;2022-08-01T04:44:47;61.83;;;18.80;;
28431;SDS011;15664;51.302;7.744;2022-08-01T04:47:12;58.97;;;17.02;;
28431;SDS011;15664;51.302;7.744;2022-08-01T04:49:38;55.58;;;16.70;;
28431;SDS011;15664;51.302;7.744;2022-08-01T04:52:03;52.73;;;16.40;;
28431;SDS011;15664;51.302;7.744;2022-08-01T04:54:32;55.03;;;17.25;;
28431;SDS011;15664;51.302;7.744;2022-08-01T04:56:58;54.20;;;16.80;;
28431;SDS011;15664;51.302;7.744;2022-08-01T04:59:28;57.03;;;17.40;;
28431;SDS011;15664;51.302;7.744;2022-08-01T05:02:05;51.78;;;16.02;;
28431;SDS011;15664;51.302;7.744;2022-08-01T05:04:31;52.23;;;17.23;;
28431;SDS011;15664;51.302;7.744;2022-08-01T05:06:56;50.53;;;18.33;;
28431;SDS011;15664;51.302;7.744;2022-08-01T05:09:21;50.97;;;17.23;;
28431;SDS011;15664;51.302;7.744;2022-08-01T05:11:46;44.87;;;15.63;;
28431;SDS011;15664;51.302;7.744;2022-08-01T05:14:11;43.43;;;15.60;;
28431;SDS011;15664;51.302;7.744;2022-08-01T05:16:37;53.30;;;17.43;;
28431;SDS011;15664;51.302;7.744;2022-08-01T05:19:02;50.40;;;17.07;;
28431;SDS011;15664;51.302;7.744;2022-08-01T05:21:27;45.43;;;15.80;;
28431;SDS011;15664;51.302;7.744;2022-08-01T05:23:52;44.57;;;16.97;;
28431;SDS011;15664;51.302;7.744;2022-08-01T05:26:18;43.80;;;16.67;;
28431;SDS011;15664;51.302;7.744;2022-08-01T05:28:43;38.30;;;14.70;;
28431;SDS011;15664;51.302;7.744;2022-08-01T05:31:08;38.50;;;14.87;;
28431;SDS011;15664;51.302;7.744;2022-08-01T05:33:33;39.73;;;14.77;;
28431;SDS011;15664;51.302;7.744;2022-08-01T05:35:58;41.93;;;16.17;;
28431;SDS011;15664;51.302;7.744;2022-08-01T05:38:24;38.63;;;14.00;;
28431;SDS011;15664;51.302;7.744;2022-08-01T05:40:49;37.27;;;14.23;;
28431;SDS011;15664;51.302;7.744;2022-08-01T05:43:14;38.40;;;15.20;;
28431;SDS011;15664;51.302;7.744;2022-08-01T05:45:39;36.50;;;14.30;;
28431;SDS011;15664;51.302;7.744;2022-08-01T05:48:06;37.45;;;14.23;;
28431;SDS011;15664;51.302;7.744;2022-08-01T05:50:32;34.90;;;14.33;;
28431;SDS011;15664;51.302;7.744;2022-08-01T05:52:57;36.10;;;14.07;;
28431;SDS011;15664;51.302;7.744;2022-08-01T05:55:22;36.50;;;13.97;;
28431;SDS011;15664;51.302;7.744;2022-08-01T05:57:48;33.67;;;13.67;;
28431;SDS011;15664;51.302;7.744;2022-08-01T06:00:13;33.97;;;14.03;;
28431;SDS011;15664;51.302;7.744;2022-08-01T06:02:40;34.88;;;13.98;;
28431;SDS011;15664;51.302;7.744;2022-08-01T06:05:05;30.80;;;13.32;;
28431;SDS011;15664;51.302;7.744;2022-08-01T06:07:30;33.33;;;13.87;;
28431;SDS011;15664;51.302;7.744;2022-08-01T06:09:56;34.17;;;13.77;;
28431;SDS011;15664;51.302;7.744;2022-08-01T06:12:21;32.97;;;13.23;;
28431;SDS011;15664;51.302;7.744;2022-08-01T06:14:46;29.20;;;13.00;;
28431;SDS011;15664;51.302;7.744;2022-08-01T06:17:11;35.53;;;13.97;;
28431;SDS011;15664;51.302;7.744;2022-08-01T06:19:36;29.80;;;13.20;;
28431;SDS011;15664;51.302;7.744;2022-08-01T06:22:01;33.57;;;13.97;;
28431;SDS011;15664;51.302;7.744;2022-08-01T06:24:27;34.10;;;13.30;;
28431;SDS011;15664;51.302;7.744;2022-08-01T06:26:52;34.27;;;13.20;;
28431;SDS011;15664;51.302;7.744;2022-08-01T06:29:17;33.80;;;13.83;;
28431;SDS011;15664;51.302;7.744;2022-08-01T06:31:42;29.73;;;13.03;;
28431;SDS011;15664;51.302;7.744;2022-08-01T06:34:08;27.57;;;12.83;;
28431;SDS011;15664;51.302;7.744;2022-08-01T06:36:33;30.13;;;12.93;;
28431;SDS011;15664;51.302;7.744;2022-08-01T06:38:58;33.10;;;12.97;;
28431;SDS011;15664;51.302;7.744;2022-08-01T06:41:23;30.20;;;12.67;;
28431;SDS011;15664;51.302;7.744;2022-08-01T06:43:48;31.80;;;12.37;;
28431;SDS011;15664;51.302;7.744;2022-08-01T06:46:14;29.67;;;13.17;;
28431;SDS011;15664;51.302;7.744;2022-08-01T06:48:39;27.23;;;12.63;;
28431;SDS011;15664;51.302;7.744;2022-08-01T06:51:05;27.17;;;13.27;;
28431;SDS011;15664;51.302;7.744;2022-08-01T06:53:33;29.75;;;12.25;;
28431;SDS011;15664;51.302;7.744;2022-08-01T06:55:59;25.92;;;11.80;;
28431;SDS011;15664;51.302;7.744;2022-08-01T06:58:24;26.73;;;12.43;;
28431;SDS011;15664;51.302;7.744;2022-08-01T07:00:49;25.23;;;11.30;;
28431;SDS011;15664;51.302;7.744;2022-08-01T07:03:14;27.50;;;12.60;;
28431;SDS011;15664;51.302;7.744;2022-08-01T07:05:39;27.77;;;12.57;;
28431;SDS011;15664;51.302;7.744;2022-08-01T07:08:05;28.20;;;13.10;;
28431;SDS011;15664;51.302;7.744;2022-08-01T07:10:30;25.57;;;12.40;;
28431;SDS011;15664;51.302;7.744;2022-08-01T07:12:55;28.27;;;12.48;;
28431;SDS011;15664;51.302;7.744;2022-08-01T07:15:20;26.60;;;11.80;;
28431;SDS011;15664;51.302;7.744;2022-08-01T07:17:51;23.70;;;12.00;;
28431;SDS011;15664;51.302;7.744;2022-08-01T07:20:16;23.03;;;10.50;;
28431;SDS011;15664;51.302;7.744;2022-08-01T07:22:41;23.77;;;10.63;;
28431;SDS011;15664;51.302;7.744;2022-08-01T07:25:06;23.20;;;10.30;;
28431;SDS011;15664;51.302;7.744;2022-08-01T07:27:32;21.50;;;9.75;;
28431;SDS011;15664;51.302;7.744;2022-08-01T07:29:57;23.17;;;10.73;;
28431;SDS011;15664;51.302;7.744;2022-08-01T07:32:22;23.63;;;10.70;;
28431;SDS011;15664;51.302;7.744;2022-08-01T07:34:48;22.53;;;10.37;;
28431;SDS011;15664;51.302;7.744;2022-08-01T07:37:13;20.47;;;9.97;;
28431;SDS011;15664;51.302;7.744;2022-08-01T07:39:38;21.57;;;10.77;;
28431;SDS011;15664;51.302;7.744;2022-08-01T07:42:03;21.63;;;10.87;;
28431;SDS011;15664;51.302;7.744;2022-08-01T07:44:29;22.60;;;10.30;;
28431;SDS011;15664;51.302;7.744;2022-08-01T07:46:54;20.30;;;10.63;;
28431;SDS011;15664;51.302;7.744;2022-08-01T07:49:19;19.00;;;9.50;;
28431;SDS011;15664;51.302;7.744;2022-08-01T07:51:46;21.17;;;10.30;;
28431;SDS011;15664;51.302;7.744;2022-08-01T07:54:12;21.53;;;10.13;;
28431;SDS011;15664;51.302;7.744;2022-08-01T07:56:37;21.30;;;9.83;;
28431;SDS011;15664;51.302;7.744;2022-08-01T07:59:02;20.67;;;10.03;;
28431;SDS011;15664;51.302;7.744;2022-08-01T08:01:27;19.20;;;9.67;;
28431;SDS011;15664;51.302;7.744;2022-08-01T08:03:53;19.90;;;9.23;;
28431;SDS011;15664;51.302;7.744;2022-08-01T08:06:18;17.13;;;9.00;;
28431;SDS011;15664;51.302;7.744;2022-08-01T08:08:43;18.43;;;9.93;;
28431;SDS011;15664;51.302;7.744;2022-08-01T08:11:08;20.43;;;9.27;;
28431;SDS011;15664;51.302;7.744;2022-08-01T08:13:34;14.02;;;7.78;;
28431;SDS011;15664;51.302;7.744;2022-08-01T08:15:59;11.77;;;5.93;;
28431;SDS011;15664;51.302;7.744;2022-08-01T08:18:25;12.93;;;6.80;;
28431;SDS011;15664;51.302;7.744;2022-08-01T08:20:50;14.13;;;6.80;;
28431;SDS011;15664;51.302;7.744;2022-08-01T08:23:15;15.10;;;7.57;;
28431;SDS011;15664;51.302;7.744;2022-08-01T08:25:59;14.90;;;7.38;;
28431;SDS011;15664;51.302;7.744;2022-08-01T08:28:24;15.70;;;7.90;;
28431;SDS011;15664;51.302;7.744;2022-08-01T08:30:49;15.97;;;8.03;;
28431;SDS011;15664;51.302;7.744;2022-08-01T08:33:14;15.00;;;7.53;;
28431;SDS011;15664;51.302;7.744;2022-08-01T08:35:40;17.87;;;8.10;;
28431;SDS011;15664;51.302;7.744;2022-08-01T08:38:06;13.95;;;7.38;;
28431;SDS011;15664;51.302;7.744;2022-08-01T08:40:31;16.43;;;7.40;;
28431;SDS011;15664;51.302;7.744;2022-08-01T08:42:59;13.65;;;7.38;;
28431;SDS011;15664;51.302;7.744;2022-08-01T08:45:24;14.07;;;7.03;;
28431;SDS011;15664;51.302;7.744;2022-08-01T08:47:50;14.97;;;7.77;;
28431;SDS011;15664;51.302;7.744;2022-08-01T08:50:17;14.05;;;7.40;;
28431;SDS011;15664;51.302;7.744;2022-08-01T08:52:42;13.90;;;7.60;;
28431;SDS011;15664;51.302;7.744;2022-08-01T08:55:08;13.80;;;7.40;;
28431;SDS011;15664;51.302;7.744;2022-08-01T08:57:33;15.57;;;7.67;;
28431;SDS011;15664;51.302;7.744;2022-08-01T08:59:59;13.33;;;7.47;;
28431;SDS011;15664;51.302;7.744;2022-08-01T09:02:25;13.73;;;7.60;;
28431;SDS011;15664;51.302;7.744;2022-08-01T09:04:50;14.30;;;6.90;;
28431;SDS011;15664;51.302;7.744;2022-08-01T09:07:16;14.32;;;7.28;;
28431;SDS011;15664;51.302;7.744;2022-08-01T09:09:41;13.03;;;6.80;;
28431;SDS011;15664;51.302;7.744;2022-08-01T09:12:06;13.63;;;6.83;;
28431;SDS011;15664;51.302;7.744;2022-08-01T09:14:31;9.87;;;5.63;;
28431;SDS011;15664;51.302;7.744;2022-08-01T09:17:07;11.17;;;6.07;;
28431;SDS011;15664;51.302;7.744;2022-08-01T09:21:58;11.05;;;5.60;;
28431;SDS011;15664;51.302;7.744;2022-08-01T09:24:24;9.80;;;5.63;;
28431;SDS011;15664;51.302;7.744;2022-08-01T09:26:49;9.73;;;5.23;;
28431;SDS011;15664;51.302;7.744;2022-08-01T09:29:19;10.38;;;5.30;;
28431;SDS011;15664;51.302;7.744;2022-08-01T09:31:45;9.73;;;4.80;;
28431;SDS011;15664;51.302;7.744;2022-08-01T09:34:11;8.80;;;5.00;;
28431;SDS011;15664;51.302;7.744;2022-08-01T09:39:13;10.50;;;5.17;;
28431;SDS011;15664;51.302;7.744;2022-08-01T09:41:39;10.20;;;5.55;;
28431;SDS011;15664;51.302;7.744;2022-08-01T09:44:04;10.10;;;5.43;;
28431;SDS011;15664;51.302;7.744;2022-08-01T09:46:30;12.00;;;6.20;;
28431;SDS011;15664;51.302;7.744;2022-08-01T09:48:58;11.50;;;6.47;;
28431;SDS011;15664;51.302;7.744;2022-08-01T09:51:28;10.30;;;5.43;;
28431;SDS011;15664;51.302;7.744;2022-08-01T09:53:53;11.80;;;5.55;;
28431;SDS011;15664;51.302;7.744;2022-08-01T09:56:20;9.73;;;5.45;;
28431;SDS011;15664;51.302;7.744;2022-08-01T10:01:14;7.85;;;4.10;;
28431;SDS011;15664;51.302;7.744;2022-08-01T10:03:40;7.23;;;3.60;;
28431;SDS011;15664;51.302;7.744;2022-08-01T10:06:20;5.97;;;2.90;;
28431;SDS011;15664;51.302;7.744;2022-08-01T10:08:46;7.35;;;2.58;;
28431;SDS011;15664;51.302;7.744;2022-08-01T10:11:12;6.30;;;2.38;;
28431;SDS011;15664;51.302;7.744;2022-08-01T10:13:37;5.00;;;2.57;;
28431;SDS011;15664;51.302;7.744;2022-08-01T10:16:03;6.27;;;3.00;;
28431;SDS011;15664;51.302;7.744;2022-08-01T10:18:31;7.15;;;3.20;;
28431;SDS011;15664;51.302;7.744;2022-08-01T10:20:56;6.35;;;3.03;;
28431;SDS011;15664;51.302;7.744;2022-08-01T10:23:22;5.97;;;3.20;;
28431;SDS011;15664;51.302;7.744;2022-08-01T10:25:48;7.20;;;3.58;;
28431;SDS011;15664;51.302;7.744;2022-08-01T10:28:15;5.85;;;3.28;;
28431;SDS011;15664;51.302;7.744;2022-08-01T10:30:41;7.78;;;3.60;;
28431;SDS011;15664;51.302;7.744;2022-08-01T10:33:07;7.17;;;3.40;;
28431;SDS011;15664;51.302;7.744;2022-08-01T10:35:32;6.13;;;3.40;;
28431;SDS011;15664;51.302;7.744;2022-08-01T10:37:57;5.95;;;3.40;;
28431;SDS011;15664;51.302;7.744;2022-08-01T10:40:23;6.07;;;3.23;;
28431;SDS011;15664;51.302;7.744;2022-08-01T10:42:48;5.97;;;2.90;;
28431;SDS011;15664;51.302;7.744;2022-08-01T10:45:14;4.60;;;2.37;;
28431;SDS011;15664;51.302;7.744;2022-08-01T10:47:42;6.13;;;2.30;;
28431;SDS011;15664;51.302;7.744;2022-08-01T10:50:21;6.03;;;2.33;;
28431;SDS011;15664;51.302;7.744;2022-08-01T10:55:45;4.68;;;2.33;;
28431;SDS011;15664;51.302;7.744;2022-08-01T10:58:10;5.55;;;2.40;;
28431;SDS011;15664;51.302;7.744;2022-08-01T11:00:35;4.43;;;2.33;;
28431;SDS011;15664;51.302;7.744;2022-08-01T11:03:01;5.83;;;2.27;;
28431;SDS011;15664;51.302;7.744;2022-08-01T11:05:30;4.38;;;2.33;;
28431;SDS011;15664;51.302;7.744;2022-08-01T11:07:56;4.32;;;2.40;;
28431;SDS011;15664;51.302;7.744;2022-08-01T11:12:57;5.55;;;2.47;;
28431;SDS011;15664;51.302;7.744;2022-08-01T11:15:24;5.82;;;2.60;;
28431;SDS011;15664;51.302;7.744;2022-08-01T11:17:50;4.07;;;2.25;;
28431;SDS011;15664;51.302;7.744;2022-08-01T11:20:16;4.97;;;2.17;;
28431;SDS011;15664;51.302;7.744;2022-08-01T11:25:22;4.30;;;2.00;;
28431;SDS011;15664;51.302;7.744;2022-08-01T11:27:47;5.50;;;2.43;;
28431;SDS011;15664;51.302;7.744;2022-08-01T11:32:48;5.97;;;2.35;;
28431;SDS011;15664;51.302;7.744;2022-08-01T11:35:14;7.13;;;2.83;;
28431;SDS011;15664;51.302;7.744;2022-08-01T11:37:39;6.10;;;3.00;;
28431;SDS011;15664;51.302;7.744;2022-08-01T11:40:18;5.67;;;3.10;;
28431;SDS011;15664;51.302;7.744;2022-08-01T11:42:43;6.75;;;3.42;;
28431;SDS011;15664;51.302;7.744;2022-08-01T11:45:08;7.10;;;3.60;;
28431;SDS011;15664;51.302;7.744;2022-08-01T11:47:47;6.40;;;3.93;;
28431;SDS011;15664;51.302;7.744;2022-08-01T11:53:03;6.55;;;4.03;;
28431;SDS011;15664;51.302;7.744;2022-08-01T11:55:29;7.03;;;4.30;;
28431;SDS011;15664;51.302;7.744;2022-08-01T11:58:03;6.43;;;4.37;;
28431;SDS011;15664;51.302;7.744;2022-08-01T12:00:29;7.03;;;5.15;;
28431;SDS011;15664;51.302;7.744;2022-08-01T12:03:06;7.03;;;4.60;;
28431;SDS011;15664;51.302;7.744;2022-08-01T12:05:32;8.70;;;5.18;;
28431;SDS011;15664;51.302;7.744;2022-08-01T12:07:58;8.35;;;5.95;;
28431;SDS011;15664;51.302;7.744;2022-08-01T12:10:24;8.97;;;5.60;;
28431;SDS011;15664;51.302;7.744;2022-08-01T12:12:51;7.78;;;5.35;;
28431;SDS011;15664;51.302;7.744;2022-08-01T12:15:17;7.93;;;4.97;;
28431;SDS011;15664;51.302;7.744;2022-08-01T12:17:47;7.47;;;4.90;;
28431;SDS011;15664;51.302;7.744;2022-08-01T12:20:13;6.95;;;4.57;;
28431;SDS011;15664;51.302;7.744;2022-08-01T12:22:39;7.88;;;4.00;;
28431;SDS011;15664;51.302;7.744;2022-08-01T12:25:08;6.18;;;3.67;;
28431;SDS011;15664;51.302;7.744;2022-08-01T12:27:34;4.47;;;2.50;;
28431;SDS011;15664;51.302;7.744;2022-08-01T12:30:00;6.50;;;3.20;;
28431;SDS011;15664;51.302;7.744;2022-08-01T12:32:29;5.53;;;2.83;;
28431;SDS011;15664;51.302;7.744;2022-08-01T12:34:56;5.43;;;2.30;;
28431;SDS011;15664;51.302;7.744;2022-08-01T12:37:22;5.40;;;2.72;;
28431;SDS011;15664;51.302;7.744;2022-08-01T12:39:48;4.65;;;2.78;;
28431;SDS011;15664;51.302;7.744;2022-08-01T12:42:13;5.85;;;3.60;;
28431;SDS011;15664;51.302;7.744;2022-08-01T12:44:39;5.23;;;3.00;;
28431;SDS011;15664;51.302;7.744;2022-08-01T12:47:05;5.65;;;3.30;;
28431;SDS011;15664;51.302;7.744;2022-08-01T12:49:32;5.10;;;3.17;;
28431;SDS011;15664;51.302;7.744;2022-08-01T12:51:57;5.03;;;2.83;;
28431;SDS011;15664;51.302;7.744;2022-08-01T12:54:23;5.10;;;3.07;;
28431;SDS011;15664;51.302;7.744;2022-08-01T12:56:50;5.50;;;3.38;;
28431;SDS011;15664;51.302;7.744;2022-08-01T12:59:21;5.30;;;3.25;;
28431;SDS011;15664;51.302;7.744;2022-08-01T13:01:49;5.45;;;2.90;;
28431;SDS011;15664;51.302;7.744;2022-08-01T13:04:14;6.00;;;2.63;;
28431;SDS011;15664;51.302;7.744;2022-08-01T13:06:39;5.40;;;3.20;;
28431;SDS011;15664;51.302;7.744;2022-08-01T13:09:05;5.20;;;3.53;;
28431;SDS011;15664;51.302;7.744;2022-08-01T13:11:30;7.93;;;3.47;;
28431;SDS011;15664;51.302;7.744;2022-08-01T13:13:56;5.78;;;3.28;;
28431;SDS011;15664;51.302;7.744;2022-08-01T13:16:23;4.85;;;3.00;;
28431;SDS011;15664;51.302;7.744;2022-08-01T13:18:52;5.78;;;2.90;;
28431;SDS011;15664;51.302;7.744;2022-08-01T13:21:21;4.40;;;2.60;;
28431;SDS011;15664;51.302;7.744;2022-08-01T13:26:42;4.55;;;2.50;;
28431;SDS011;15664;51.302;7.744;2022-08-01T13:29:08;4.60;;;2.60;;
28431;SDS011;15664;51.302;7.744;2022-08-01T13:31:34;5.30;;;2.38;;
28431;SDS011;15664;51.302;7.744;2022-08-01T13:34:00;4.32;;;2.10;;
28431;SDS011;15664;51.302;7.744;2022-08-01T13:36:25;4.10;;;2.10;;
28431;SDS011;15664;51.302;7.744;2022-08-01T13:38:53;3.80;;;2.47;;
28431;SDS011;15664;51.302;7.744;2022-08-01T13:41:37;4.47;;;2.72;;
28431;SDS011;15664;51.302;7.744;2022-08-01T13:44:03;5.67;;;2.70;;
28431;SDS011;15664;51.302;7.744;2022-08-01T13:46:28;4.30;;;2.53;;
28431;SDS011;15664;51.302;7.744;2022-08-01T13:48:53;4.93;;;2.93;;
28431;SDS011;15664;51.302;7.744;2022-08-01T13:51:19;4.13;;;2.25;;
28431;SDS011;15664;51.302;7.744;2022-08-01T13:53:44;4.20;;;2.40;;
28431;SDS011;15664;51.302;7.744;2022-08-01T13:56:09;4.03;;;2.33;;
28431;SDS011;15664;51.302;7.744;2022-08-01T13:58:35;6.20;;;2.20;;
28431;SDS011;15664;51.302;7.744;2022-08-01T14:01:00;3.57;;;1.87;;
28431;SDS011;15664;51.302;7.744;2022-08-01T14:03:25;4.03;;;2.37;;
28431;SDS011;15664;51.302;7.744;2022-08-01T14:05:50;4.57;;;2.40;;
28431;SDS011;15664;51.302;7.744;2022-08-01T14:08:16;3.60;;;2.00;;
28431;SDS011;15664;51.302;7.744;2022-08-01T14:10:42;4.43;;;2.00;;
28431;SDS011;15664;51.302;7.744;2022-08-01T14:13:07;3.37;;;2.10;;
28431;SDS011;15664;51.302;7.744;2022-08-01T14:15:32;4.03;;;2.23;;
28431;SDS011;15664;51.302;7.744;2022-08-01T14:17:58;4.17;;;2.30;;
28431;SDS011;15664;51.302;7.744;2022-08-01T14:20:23;5.18;;;2.45;;
28431;SDS011;15664;51.302;7.744;2022-08-01T14:22:48;3.53;;;2.27;;
28431;SDS011;15664;51.302;7.744;2022-08-01T14:25:14;3.80;;;2.13;;
28431;SDS011;15664;51.302;7.744;2022-08-01T14:27:39;3.30;;;2.10;;
28431;SDS011;15664;51.302;7.744;2022-08-01T14:30:06;4.20;;;2.15;;
28431;SDS011;15664;51.302;7.744;2022-08-01T14:32:32;3.90;;;2.10;;
28431;SDS011;15664;51.302;7.744;2022-08-01T14:34:58;2.63;;;1.63;;
28431;SDS011;15664;51.302;7.744;2022-08-01T14:37:23;3.65;;;2.03;;
28431;SDS011;15664;51.302;7.744;2022-08-01T14:39:49;3.37;;;1.80;;
28431;SDS011;15664;51.302;7.744;2022-08-01T14:42:14;3.87;;;1.97;;
28431;SDS011;15664;51.302;7.744;2022-08-01T14:44:39;3.73;;;2.20;;
28431;SDS011;15664;51.302;7.744;2022-08-01T14:47:04;3.73;;;2.33;;
28431;SDS011;15664;51.302;7.744;2022-08-01T14:49:29;3.20;;;1.90;;
28431;SDS011;15664;51.302;7.744;2022-08-01T14:51:55;3.33;;;2.00;;
28431;SDS011;15664;51.302;7.744;2022-08-01T14:54:20;3.70;;;2.07;;
28431;SDS011;15664;51.302;7.744;2022-08-01T14:56:45;3.73;;;1.83;;
28431;SDS011;15664;51.302;7.744;2022-08-01T14:59:10;3.17;;;1.90;;
28431;SDS011;15664;51.302;7.744;2022-08-01T15:01:35;3.50;;;1.93;;